Time;durP1;ratioP1;P1;durP2;ratioP2;P2;SDS_P1;SDS_P2;PMS_P1;PMS_P2;Temp;Humidity;BMP_temperature;BMP_pressure;BME280_temperature;BME280_humidity;BME280_pressure;Samples;Min_cycle;Max_cycle;Signal;HPM_P1;HPM_P2
2022/07/09 00:00:01;;;;;;;4.90;3.60;;;15.70;99.90;;;;;;5119750;28;20194;-44
2022/07/09 00:02:27;;;;;;;5.73;4.10;;;15.70;99.90;;;;;;5119364;28;20227;-43
2022/07/09 00:04:52;;;;;;;4.77;3.90;;;15.60;99.90;;;;;;5118510;28;20174;-43
2022/07/09 00:07:18;;;;;;;5.23;3.83;;;15.60;99.90;;;;;;5117844;28;20174;-44
2022/07/09 00:09:44;;;;;;;6.97;4.00;;;15.60;99.90;;;;;;5117608;28;20742;-42
2022/07/09 00:12:10;;;;;;;4.93;3.80;;;15.50;99.90;;;;;;5121686;28;20174;-42
2022/07/09 00:14:35;;;;;;;6.03;3.90;;;15.50;99.90;;;;;;5121905;28;20661;-44
2022/07/09 00:17:01;;;;;;;4.70;3.83;;;15.50;99.90;;;;;;5122477;28;20180;-43
2022/07/09 00:19:26;;;;;;;4.33;3.93;;;15.50;99.90;;;;;;5122108;28;20198;-43
2022/07/09 00:21:52;;;;;;;6.67;3.77;;;15.40;99.90;;;;;;5119748;28;20178;-42
2022/07/09 00:24:17;;;;;;;5.13;3.57;;;15.40;99.90;;;;;;5098377;28;20193;-45
2022/07/09 00:26:43;;;;;;;4.57;3.73;;;15.30;99.90;;;;;;5116042;28;20170;-44
2022/07/09 00:29:09;;;;;;;4.97;3.50;;;15.30;99.90;;;;;;5115473;28;20214;-43
2022/07/09 00:31:34;;;;;;;4.87;3.70;;;15.30;99.90;;;;;;5115081;28;20182;-43
2022/07/09 00:34:00;;;;;;;5.17;3.47;;;15.20;99.90;;;;;;5113910;28;20177;-44
2022/07/09 00:36:26;;;;;;;5.63;3.70;;;15.20;99.90;;;;;;5114061;28;20192;-42
2022/07/09 00:38:51;;;;;;;3.70;3.30;;;15.20;99.90;;;;;;5114569;28;20651;-42
2022/07/09 00:41:17;;;;;;;4.50;3.50;;;15.20;99.90;;;;;;5113853;28;20182;-39
2022/07/09 00:43:48;;;;;;;4.97;3.43;;;15.10;99.90;;;;;;5113826;28;20257;-40
2022/07/09 00:46:14;;;;;;;7.00;3.50;;;15.00;99.90;;;;;;5114722;28;20212;-44
2022/07/09 00:48:39;;;;;;;8.83;3.77;;;15.00;99.90;;;;;;5115150;28;20269;-44
2022/07/09 00:51:05;;;;;;;4.07;3.50;;;14.90;99.90;;;;;;5114672;28;20178;-40
2022/07/09 00:53:31;;;;;;;4.07;2.93;;;14.90;99.90;;;;;;5117451;28;20538;-39
2022/07/09 00:55:57;;;;;;;4.57;3.10;;;14.90;99.90;;;;;;5118999;28;20178;-38
2022/07/09 00:58:23;;;;;;;5.53;2.97;;;14.80;99.90;;;;;;5100314;28;20178;-40
2022/07/09 01:00:49;;;;;;;4.00;2.90;;;14.80;99.90;;;;;;5119039;28;20206;-43
2022/07/09 01:03:15;;;;;;;3.43;3.13;;;14.70;99.90;;;;;;5120196;28;20539;-44
2022/07/09 01:05:41;;;;;;;5.77;2.83;;;14.70;99.90;;;;;;5122422;28;20174;-43
2022/07/09 01:08:08;;;;;;;6.23;2.70;;;14.70;99.90;;;;;;5122958;28;20170;-44
2022/07/09 01:10:35;;;;;;;3.20;2.70;;;14.60;99.90;;;;;;5120697;28;20202;-40
2022/07/09 01:13:03;;;;;;;3.33;2.73;;;14.60;99.90;;;;;;5120497;28;20173;-44
2022/07/09 01:15:29;;;;;;;3.77;2.93;;;14.60;99.90;;;;;;5118977;28;20546;-44
2022/07/09 01:17:57;;;;;;;7.60;2.87;;;14.60;99.90;;;;;;5117738;28;20166;-41
2022/07/09 01:20:23;;;;;;;4.53;2.70;;;14.50;99.90;;;;;;5117722;28;20194;-42
2022/07/09 01:22:49;;;;;;;6.00;2.90;;;14.50;99.90;;;;;;5117931;28;20178;-37
2022/07/09 01:25:16;;;;;;;5.57;3.10;;;14.50;99.90;;;;;;5117918;28;20233;-39
2022/07/09 01:27:42;;;;;;;3.17;2.87;;;14.50;99.90;;;;;;5118330;28;20213;-42
2022/07/09 01:30:08;;;;;;;3.30;3.00;;;14.50;99.90;;;;;;5118354;28;20220;-44
2022/07/09 01:32:34;;;;;;;6.10;2.60;;;14.50;99.90;;;;;;5117210;28;20170;-41
2022/07/09 01:35:00;;;;;;;3.00;2.80;;;14.50;99.90;;;;;;5117396;28;20626;-45
2022/07/09 01:37:26;;;;;;;3.10;2.77;;;14.50;99.90;;;;;;5101602;28;20665;-41
2022/07/09 01:39:51;;;;;;;3.83;2.83;;;14.50;99.90;;;;;;5116988;28;20352;-41
2022/07/09 01:42:18;;;;;;;5.93;3.03;;;14.50;99.90;;;;;;5116970;28;20265;-37
2022/07/09 01:44:45;;;;;;;5.00;2.70;;;14.50;99.90;;;;;;5116940;28;20181;-39
2022/07/09 01:47:11;;;;;;;4.33;2.93;;;14.50;99.90;;;;;;5116959;28;20175;-41
2022/07/09 01:49:36;;;;;;;3.10;2.80;;;14.50;99.90;;;;;;5117899;28;20214;-40
2022/07/09 01:52:03;;;;;;;5.70;3.57;;;14.50;99.90;;;;;;5116829;28;20683;-39
2022/07/09 01:54:29;;;;;;;5.20;2.60;;;14.50;99.90;;;;;;5116997;28;20265;-40
2022/07/09 01:56:54;;;;;;;4.37;3.00;;;14.50;99.90;;;;;;5117016;28;20253;-38
2022/07/09 01:59:20;;;;;;;4.10;2.73;;;14.40;99.90;;;;;;5116833;28;20206;-40
2022/07/09 02:01:45;;;;;;;3.87;2.63;;;14.40;99.90;;;;;;5116627;28;20181;-39
2022/07/09 02:04:11;;;;;;;3.50;3.20;;;14.40;99.90;;;;;;5115372;28;20181;-40
2022/07/09 02:06:37;;;;;;;3.97;3.00;;;14.30;99.90;;;;;;5116971;28;20518;-40
2022/07/09 02:09:03;;;;;;;3.93;2.70;;;14.40;99.90;;;;;;5119420;28;20363;-42
2022/07/09 02:11:28;;;;;;;4.43;3.00;;;14.30;99.90;;;;;;5119705;28;20216;-44
2022/07/09 02:13:54;;;;;;;3.50;3.03;;;14.30;99.90;;;;;;5120098;28;20182;-43
2022/07/09 02:16:19;;;;;;;7.83;3.57;;;14.30;99.90;;;;;;5119531;28;20178;-43
2022/07/09 02:18:45;;;;;;;5.17;3.30;;;14.20;99.90;;;;;;5120018;28;20226;-42
2022/07/09 02:21:11;;;;;;;5.20;2.57;;;14.20;99.90;;;;;;5120253;28;20226;-43
2022/07/09 02:23:37;;;;;;;3.93;2.90;;;14.20;99.90;;;;;;5119791;28;20186;-43
2022/07/09 02:26:02;;;;;;;3.97;3.13;;;14.20;99.90;;;;;;5119935;28;20548;-43
2022/07/09 02:28:28;;;;;;;4.43;3.13;;;14.20;99.90;;;;;;5120432;28;20174;-44
2022/07/09 02:30:54;;;;;;;8.27;3.13;;;14.10;99.90;;;;;;5119935;28;20204;-43
2022/07/09 02:33:20;;;;;;;4.00;2.90;;;14.10;99.90;;;;;;5101042;28;20638;-42
2022/07/09 02:35:46;;;;;;;7.67;3.37;;;14.10;99.90;;;;;;5119337;28;20713;-43
2022/07/09 02:38:12;;;;;;;4.53;3.17;;;14.10;99.90;;;;;;5119769;28;20158;-44
2022/07/09 02:40:37;;;;;;;6.27;3.57;;;14.10;99.90;;;;;;5119788;28;20204;-43
2022/07/09 02:43:03;;;;;;;4.83;3.30;;;14.10;99.90;;;;;;5119847;28;20162;-44
2022/07/09 02:45:28;;;;;;;3.60;2.93;;;14.00;99.90;;;;;;5119521;28;20185;-43
2022/07/09 02:47:54;;;;;;;3.83;3.13;;;14.00;99.90;;;;;;5118909;28;20181;-43
2022/07/09 02:50:20;;;;;;;4.27;3.43;;;14.10;99.90;;;;;;5119070;28;20209;-43
2022/07/09 02:52:45;;;;;;;4.40;3.03;;;14.00;99.90;;;;;;5119005;28;20178;-45
2022/07/09 02:55:11;;;;;;;7.20;3.53;;;14.00;99.90;;;;;;5118841;28;20265;-45
2022/07/09 02:57:36;;;;;;;4.93;2.90;;;14.00;99.90;;;;;;5119159;28;20181;-44
2022/07/09 03:00:03;;;;;;;3.07;2.73;;;14.00;99.90;;;;;;5118447;28;20284;-43
2022/07/09 03:02:29;;;;;;;4.53;3.23;;;14.00;99.90;;;;;;5118662;28;20184;-44
2022/07/09 03:04:54;;;;;;;5.97;3.03;;;14.00;99.90;;;;;;5119016;28;20223;-44
2022/07/09 03:07:20;;;;;;;5.63;3.47;;;13.90;99.90;;;;;;5118560;28;20178;-42
2022/07/09 03:09:45;;;;;;;3.63;3.33;;;13.90;99.90;;;;;;5099864;28;20742;-43
2022/07/09 03:12:11;;;;;;;3.43;3.13;;;13.90;99.90;;;;;;5117708;28;20167;-44
2022/07/09 03:14:37;;;;;;;5.30;3.20;;;13.90;99.90;;;;;;5117992;28;20251;-43
2022/07/09 03:17:02;;;;;;;4.60;3.00;;;13.90;99.90;;;;;;5118106;28;20178;-43
2022/07/09 03:19:28;;;;;;;4.10;3.53;;;13.90;99.90;;;;;;5117522;28;20201;-44
2022/07/09 03:21:53;;;;;;;7.60;3.90;;;13.90;99.90;;;;;;5117793;28;20182;-44
2022/07/09 03:24:19;;;;;;;4.83;3.33;;;13.80;99.90;;;;;;5117605;28;20197;-43
2022/07/09 03:26:44;;;;;;;4.53;3.23;;;13.80;99.90;;;;;;5116302;28;20170;-43
2022/07/09 03:29:10;;;;;;;6.13;3.57;;;13.80;99.90;;;;;;5117773;28;20210;-45
2022/07/09 03:31:35;;;;;;;5.70;3.47;;;13.80;99.90;;;;;;5117635;28;20170;-42
2022/07/09 03:34:01;;;;;;;5.77;3.73;;;13.70;99.90;;;;;;5098958;28;20283;-44
2022/07/09 03:36:27;;;;;;;8.57;3.47;;;13.70;99.90;;;;;;5117621;28;20532;-42
2022/07/09 03:38:52;;;;;;;6.27;3.63;;;13.70;99.90;;;;;;5114971;28;20185;-39
2022/07/09 03:41:18;;;;;;;5.37;3.20;;;13.70;99.90;;;;;;5114660;28;20208;-40
2022/07/09 03:43:44;;;;;;;6.87;3.67;;;13.70;99.90;;;;;;5114904;28;20666;-40
2022/07/09 03:46:09;;;;;;;3.67;3.37;;;13.60;99.90;;;;;;5115592;28;20170;-44
2022/07/09 03:48:35;;;;;;;4.53;3.80;;;13.60;99.90;;;;;;5117200;28;20184;-44
2022/07/09 03:51:00;;;;;;;3.80;3.40;;;13.60;99.90;;;;;;5116948;28;20202;-44
2022/07/09 03:53:26;;;;;;;4.83;3.87;;;13.60;99.90;;;;;;5098750;28;20171;-45
2022/07/09 03:55:52;;;;;;;7.80;4.27;;;13.60;99.90;;;;;;5116804;28;20178;-42
2022/07/09 03:58:17;;;;;;;6.77;4.17;;;13.60;99.90;;;;;;5117201;28;20184;-43
2022/07/09 04:00:43;;;;;;;6.33;4.20;;;13.60;99.90;;;;;;5117179;28;20205;-45
2022/07/09 04:03:08;;;;;;;10.10;4.20;;;13.60;99.90;;;;;;5116795;28;20174;-44
2022/07/09 04:05:34;;;;;;;9.37;4.77;;;13.60;99.90;;;;;;5117099;28;20666;-43
2022/07/09 04:08:00;;;;;;;5.73;4.40;;;13.60;99.90;;;;;;5116715;28;20639;-44
2022/07/09 04:10:26;;;;;;;11.93;4.30;;;13.60;99.90;;;;;;5116393;28;20206;-44
2022/07/09 04:12:51;;;;;;;6.70;4.73;;;13.60;99.90;;;;;;5116456;28;20649;-44
2022/07/09 04:15:17;;;;;;;4.97;4.37;;;13.70;99.90;;;;;;5116360;28;20227;-44
2022/07/09 04:17:43;;;;;;;5.20;4.27;;;13.70;99.90;;;;;;5116033;28;20174;-44
2022/07/09 04:20:09;;;;;;;8.03;5.20;;;13.70;99.90;;;;;;5116550;28;20568;-42
2022/07/09 04:22:34;;;;;;;7.27;4.40;;;13.70;99.90;;;;;;5116307;28;20180;-42
2022/07/09 04:25:00;;;;;;;5.47;4.27;;;13.70;99.90;;;;;;5116223;28;20185;-44
2022/07/09 04:27:26;;;;;;;8.90;4.77;;;13.70;99.90;;;;;;5115548;28;20201;-44
2022/07/09 04:29:51;;;;;;;7.17;4.77;;;13.80;99.90;;;;;;5116189;28;20237;-43
2022/07/09 04:32:17;;;;;;;9.13;4.50;;;13.80;99.90;;;;;;5116245;28;20269;-44
2022/07/09 04:34:42;;;;;;;7.97;4.30;;;13.80;99.90;;;;;;5117560;28;20178;-45
2022/07/09 04:37:08;;;;;;;22.73;5.03;;;13.80;99.90;;;;;;5116050;28;20270;-45
2022/07/09 04:39:34;;;;;;;7.90;4.37;;;13.90;99.90;;;;;;5115511;28;20202;-43
2022/07/09 04:41:59;;;;;;;9.07;4.67;;;13.90;99.90;;;;;;5115721;28;20564;-43
2022/07/09 04:44:25;;;;;;;8.83;4.67;;;14.00;99.90;;;;;;5115574;28;20233;-43
2022/07/09 04:46:50;;;;;;;7.33;4.77;;;14.00;99.90;;;;;;5116316;28;20182;-44
2022/07/09 04:49:16;;;;;;;11.10;4.70;;;14.10;99.90;;;;;;5115878;28;20287;-44
2022/07/09 04:51:42;;;;;;;8.87;4.20;;;14.10;99.90;;;;;;5115738;28;20524;-43
2022/07/09 04:54:08;;;;;;;7.33;4.30;;;14.20;99.90;;;;;;5115740;28;20178;-44
2022/07/09 04:56:33;;;;;;;7.83;4.53;;;14.30;99.90;;;;;;5115895;28;20249;-43
2022/07/09 04:59:02;;;;;;;5.20;4.70;;;14.30;99.90;;;;;;5115993;28;20199;-43
2022/07/09 05:01:29;;;;;;;9.40;5.30;;;14.40;99.90;;;;;;5115792;28;20182;-42
2022/07/09 05:03:55;;;;;;;9.10;5.03;;;14.40;99.90;;;;;;5115917;28;20226;-42
2022/07/09 05:06:21;;;;;;;13.10;5.23;;;14.50;99.90;;;;;;5115961;28;20185;-44
2022/07/09 05:08:47;;;;;;;6.23;4.90;;;14.50;99.90;;;;;;5115758;28;20184;-43
2022/07/09 05:11:13;;;;;;;12.13;5.43;;;14.60;99.90;;;;;;5115471;28;20206;-44
2022/07/09 05:13:41;;;;;;;6.17;5.03;;;14.70;99.90;;;;;;5115256;28;20185;-43
2022/07/09 05:16:08;;;;;;;7.60;5.90;;;14.70;99.90;;;;;;5115587;28;20174;-44
2022/07/09 05:18:34;;;;;;;7.27;5.60;;;14.90;99.90;;;;;;5115663;28;20598;-42
2022/07/09 05:20:59;;;;;;;11.13;5.90;;;14.90;99.90;;;;;;5115592;28;20232;-45
2022/07/09 05:23:25;;;;;;;10.47;5.80;;;14.90;99.90;;;;;;5115733;28;20182;-44
2022/07/09 05:25:51;;;;;;;12.53;6.60;;;15.00;99.90;;;;;;5116370;28;20167;-44
2022/07/09 05:28:16;;;;;;;10.40;6.77;;;15.10;99.90;;;;;;5115542;28;20192;-43
2022/07/09 05:30:42;;;;;;;8.73;6.23;;;15.20;99.90;;;;;;5115602;28;20560;-43
2022/07/09 05:33:08;;;;;;;7.90;6.53;;;15.30;99.90;;;;;;5115601;28;20178;-44
2022/07/09 05:35:34;;;;;;;13.80;7.07;;;15.40;99.90;;;;;;5115134;28;20178;-44
2022/07/09 05:37:59;;;;;;;10.03;7.47;;;15.50;99.90;;;;;;5116408;28;20169;-44
2022/07/09 05:40:25;;;;;;;8.37;6.93;;;15.60;99.90;;;;;;5119431;28;20201;-43
2022/07/09 05:42:51;;;;;;;10.70;6.73;;;15.60;99.90;;;;;;5119529;28;20214;-42
2022/07/09 05:45:17;;;;;;;14.13;7.60;;;15.70;99.90;;;;;;5119529;28;20217;-43
2022/07/09 05:47:43;;;;;;;16.87;8.70;;;15.80;99.90;;;;;;5103059;28;20177;-44
2022/07/09 05:50:09;;;;;;;9.63;7.73;;;15.90;99.90;;;;;;5119496;28;20217;-44
2022/07/09 05:52:34;;;;;;;11.90;8.20;;;15.90;99.90;;;;;;5119735;28;20178;-43
2022/07/09 05:55:00;;;;;;;12.60;8.87;;;16.10;99.90;;;;;;5100959;28;20178;-43
2022/07/09 05:57:26;;;;;;;12.07;8.67;;;16.20;99.90;;;;;;5119659;28;20587;-43
2022/07/09 05:59:51;;;;;;;12.83;8.40;;;16.20;99.90;;;;;;5119822;28;20659;-44
2022/07/09 06:02:18;;;;;;;14.83;8.63;;;16.30;99.90;;;;;;5119369;28;20182;-43
2022/07/09 06:04:44;;;;;;;11.07;8.70;;;16.50;99.90;;;;;;5120151;28;20182;-42
2022/07/09 06:07:09;;;;;;;11.67;8.27;;;16.60;99.90;;;;;;5120377;28;20178;-44
2022/07/09 06:09:35;;;;;;;10.27;7.83;;;16.70;99.90;;;;;;5119476;28;20234;-44
2022/07/09 06:12:01;;;;;;;11.73;8.77;;;16.80;99.90;;;;;;5119375;28;20645;-43
2022/07/09 06:14:27;;;;;;;10.90;8.77;;;17.00;99.90;;;;;;5118946;28;20231;-43
2022/07/09 06:16:55;;;;;;;11.10;8.43;;;17.30;99.90;;;;;;5100038;28;20679;-45
2022/07/09 06:19:20;;;;;;;13.40;7.60;;;17.40;99.90;;;;;;5118080;28;20224;-43
2022/07/09 06:21:46;;;;;;;13.70;7.83;;;17.60;99.90;;;;;;5118069;28;20178;-42
2022/07/09 06:24:12;;;;;;;10.80;7.53;;;17.80;99.90;;;;;;5118088;28;20189;-41
2022/07/09 06:26:37;;;;;;;11.13;7.43;;;18.10;99.90;;;;;;5099850;28;20230;-43
2022/07/09 06:29:03;;;;;;;10.73;7.83;;;18.40;99.90;;;;;;5118265;28;20354;-42
2022/07/09 06:31:29;;;;;;;10.33;7.60;;;18.70;99.90;;;;;;5119858;28;20248;-43
2022/07/09 06:33:56;;;;;;;15.17;7.60;;;19.10;99.90;;;;;;5120172;28;20198;-45
2022/07/09 06:36:22;;;;;;;7.60;6.37;;;19.50;99.90;;;;;;5102007;28;20194;-42
2022/07/09 06:41:32;;;;;;;8.43;5.90;;;20.10;99.90;;;;;;5121502;28;20208;-45
2022/07/09 06:43:58;;;;;;;10.80;6.23;;;20.30;99.90;;;;;;5119608;28;20175;-43
2022/07/09 06:46:24;;;;;;;10.33;5.77;;;20.50;99.90;;;;;;5115894;28;20239;-45
2022/07/09 06:48:49;;;;;;;8.27;5.13;;;20.70;99.90;;;;;;5115667;28;20170;-43
2022/07/09 06:51:15;;;;;;;8.83;5.63;;;21.00;99.90;;;;;;5115157;28;20166;-41
2022/07/09 06:53:40;;;;;;;8.43;5.43;;;21.20;99.90;;;;;;5115880;28;20178;-42
2022/07/09 06:56:06;;;;;;;7.13;4.83;;;21.40;99.90;;;;;;5115919;28;20178;-41
2022/07/09 06:58:32;;;;;;;8.00;5.03;;;21.50;99.90;;;;;;5115925;28;20188;-41
2022/07/09 07:00:57;;;;;;;7.23;4.67;;;21.60;99.90;;;;;;5115536;28;20202;-42
2022/07/09 07:03:23;;;;;;;9.77;5.07;;;21.80;99.90;;;;;;5097187;28;20181;-43
2022/07/09 07:05:48;;;;;;;8.97;4.90;;;21.80;99.90;;;;;;5115790;28;20222;-42
2022/07/09 07:08:14;;;;;;;10.77;5.13;;;21.90;99.90;;;;;;5115421;28;20265;-43
2022/07/09 07:10:40;;;;;;;6.90;4.80;;;22.10;99.90;;;;;;5115146;28;20293;-43
2022/07/09 07:13:05;;;;;;;7.13;4.60;;;22.10;99.90;;;;;;5100756;28;20171;-43
2022/07/09 07:15:31;;;;;;;10.13;4.07;;;22.20;99.90;;;;;;5115228;28;20173;-45
2022/07/09 07:17:57;;;;;;;8.93;4.30;;;22.30;99.90;;;;;;5115105;28;20204;-44
2022/07/09 07:20:24;;;;;;;11.30;4.43;;;22.30;99.90;;;;;;5115060;28;20277;-42
2022/07/09 07:22:50;;;;;;;6.10;4.20;;;22.40;99.90;;;;;;5115199;28;20257;-43
2022/07/09 07:25:16;;;;;;;6.27;4.10;;;22.40;99.90;;;;;;5097021;28;20205;-43
2022/07/09 07:27:42;;;;;;;7.83;4.03;;;22.40;99.90;;;;;;5115260;28;20213;-43
2022/07/09 07:30:08;;;;;;;7.93;4.23;;;22.40;99.90;;;;;;5114844;28;20206;-43
2022/07/09 07:32:33;;;;;;;6.37;3.80;;;22.40;99.90;;;;;;5118855;28;20173;-42
2022/07/09 07:34:59;;;;;;;4.60;3.73;;;22.40;99.90;;;;;;5096569;28;20649;-42
2022/07/09 07:37:24;;;;;;;7.93;4.30;;;22.30;99.90;;;;;;5114655;28;20196;-44
2022/07/09 07:39:51;;;;;;;6.13;4.40;;;22.20;99.90;;;;;;5114652;28;20658;-42
2022/07/09 07:42:16;;;;;;;4.87;4.30;;;22.10;99.90;;;;;;5115849;28;20178;-45
2022/07/09 07:44:42;;;;;;;4.73;2.93;;;22.20;99.90;;;;;;5119236;28;20185;-43
2022/07/09 07:47:08;;;;;;;5.37;2.70;;;22.30;99.90;;;;;;5115085;28;20174;-46
2022/07/09 07:49:33;;;;;;;3.43;2.80;;;22.30;99.90;;;;;;5114908;28;20205;-44
2022/07/09 07:51:59;;;;;;;6.50;3.20;;;22.40;99.90;;;;;;5114739;28;20595;-42
2022/07/09 07:54:24;;;;;;;4.23;2.60;;;22.60;99.90;;;;;;5114412;28;20178;-41
2022/07/09 07:56:50;;;;;;;4.33;2.47;;;22.90;99.90;;;;;;5114901;28;20178;-43
2022/07/09 07:59:17;;;;;;;4.93;2.53;;;23.00;99.90;;;;;;5096002;28;20670;-43
2022/07/09 08:01:42;;;;;;;5.63;3.10;;;22.90;99.90;;;;;;5113362;28;20239;-45
2022/07/09 08:04:09;;;;;;;5.30;3.43;;;22.80;99.90;;;;;;5114489;28;20186;-42
2022/07/09 08:06:35;;;;;;;4.97;3.47;;;22.80;99.90;;;;;;5114170;28;20185;-42
2022/07/09 08:09:02;;;;;;;4.10;3.20;;;22.80;99.90;;;;;;5114057;28;20288;-43
2022/07/09 08:11:27;;;;;;;4.70;2.50;;;22.90;99.90;;;;;;5114390;28;20186;-42
2022/07/09 08:13:53;;;;;;;3.93;3.00;;;23.00;99.90;;;;;;5114033;28;20178;-42
2022/07/09 08:16:19;;;;;;;6.63;2.80;;;22.90;99.90;;;;;;5114098;28;20209;-43
2022/07/09 08:18:45;;;;;;;2.73;2.47;;;22.80;99.90;;;;;;5114282;28;20520;-42
2022/07/09 08:21:11;;;;;;;6.17;3.10;;;22.90;99.90;;;;;;5117617;28;20181;-44
2022/07/09 08:23:51;;;;;;;4.27;2.63;;;23.30;99.90;;;;;;5114240;28;20178;-44
2022/07/09 08:26:18;;;;;;;4.87;2.10;;;23.40;99.90;;;;;;5113925;28;20645;-43
2022/07/09 08:28:43;;;;;;;2.03;1.50;;;23.70;99.90;;;;;;5113819;28;20174;-43
2022/07/09 08:31:09;;;;;;;11.80;3.50;;;23.60;99.90;;;;;;5114192;28;20189;-44
2022/07/09 08:33:34;;;;;;;2.20;1.80;;;23.60;99.90;;;;;;5114282;28;20265;-44
2022/07/09 08:36:00;;;;;;;2.40;1.50;;;23.60;99.90;;;;;;5113794;28;20190;-43
2022/07/09 08:38:26;;;;;;;3.63;1.90;;;23.70;99.90;;;;;;5113978;28;20174;-45
2022/07/09 08:40:53;;;;;;;3.17;2.17;;;23.80;99.90;;;;;;5113934;28;20285;-42
2022/07/09 08:43:19;;;;;;;1.87;1.70;;;23.70;99.90;;;;;;5113852;28;20185;-42
2022/07/09 08:45:46;;;;;;;2.70;1.70;;;23.90;99.90;;;;;;5113808;28;20177;-45
2022/07/09 08:48:12;;;;;;;2.13;1.37;;;24.10;99.90;;;;;;5114105;28;20189;-45
2022/07/09 08:50:40;;;;;;;3.23;1.63;;;24.40;99.90;;;;;;5113672;28;20213;-43
2022/07/09 08:53:05;;;;;;;3.00;1.80;;;24.60;99.90;;;;;;5113787;28;20174;-42
2022/07/09 08:55:33;;;;;;;2.13;1.30;;;24.50;99.90;;;;;;5113872;28;20182;-43
2022/07/09 08:57:58;;;;;;;1.63;1.10;;;24.30;99.90;;;;;;5114021;28;20221;-44
2022/07/09 09:00:24;;;;;;;1.30;1.10;;;24.30;99.90;;;;;;5113737;28;20222;-43
2022/07/09 09:02:50;;;;;;;2.47;1.10;;;24.70;99.90;;;;;;5113627;28;20195;-43
2022/07/09 09:05:16;;;;;;;3.27;1.57;;;24.80;99.90;;;;;;5113658;28;20206;-45
2022/07/09 09:07:42;;;;;;;4.80;1.70;;;24.90;99.90;;;;;;5113590;28;20170;-44
2022/07/09 09:10:08;;;;;;;1.80;1.33;;;25.20;99.90;;;;;;5113535;28;20285;-43
2022/07/09 09:12:34;;;;;;;1.40;1.30;;;25.40;99.90;;;;;;5114053;28;20636;-44
2022/07/09 09:15:03;;;;;;;1.70;1.30;;;25.70;99.90;;;;;;5117648;28;20299;-44
2022/07/09 09:17:30;;;;;;;3.07;1.40;;;25.90;99.90;;;;;;5117524;28;20220;-45
2022/07/09 09:19:55;;;;;;;2.57;1.63;;;25.90;99.90;;;;;;5117496;28;20277;-42
2022/07/09 09:22:21;;;;;;;1.60;1.00;;;26.00;99.90;;;;;;5117724;28;20666;-44
2022/07/09 09:24:51;;;;;;;1.20;1.00;;;26.10;99.90;;;;;;5117528;28;20178;-44
2022/07/09 09:27:16;;;;;;;0.90;0.80;;;26.20;99.90;;;;;;5117463;28;20201;-43
2022/07/09 09:29:50;;;;;;;1.80;0.90;;;26.30;99.90;;;;;;5117449;28;20245;-43
2022/07/09 09:32:19;;;;;;;0.60;0.60;;;26.40;99.90;;;;;;5117932;28;20194;-45
2022/07/09 09:34:49;;;;;;;1.93;0.80;;;26.50;99.90;;;;;;5117842;28;20262;-45
2022/07/09 09:37:25;;;;;;;1.33;1.00;;;26.60;99.90;;;;;;5117755;28;20218;-43
2022/07/09 09:39:51;;;;;;;1.43;1.23;;;26.60;99.90;;;;;;5117990;28;20206;-44
2022/07/09 09:42:17;;;;;;;0.70;0.60;;;26.60;99.90;;;;;;5117764;28;20539;-44
2022/07/09 09:44:44;;;;;;;2.00;1.00;;;26.60;99.90;;;;;;5117784;28;20182;-45
2022/07/09 09:47:10;;;;;;;2.40;1.20;;;26.60;99.90;;;;;;5117944;28;20173;-44
2022/07/09 09:49:40;;;;;;;1.60;1.17;;;26.70;99.90;;;;;;5117748;28;20206;-43
2022/07/09 09:52:08;;;;;;;2.83;1.02;;;26.70;99.90;;;;;;5117946;28;20166;-43
2022/07/09 09:54:39;;;;;;;4.30;1.20;;;26.60;99.90;;;;;;5117790;28;20257;-44
2022/07/09 09:57:10;;;;;;;3.10;1.40;;;26.70;99.90;;;;;;5118315;28;20164;-44
2022/07/09 09:59:40;;;;;;;2.83;1.58;;;26.70;99.90;;;;;;5118558;28;20202;-43
2022/07/09 10:02:09;;;;;;;3.22;1.52;;;26.80;99.90;;;;;;5121136;28;20209;-44
2022/07/09 10:04:36;;;;;;;3.92;1.60;;;27.00;99.90;;;;;;5124837;28;20206;-44
2022/07/09 10:07:03;;;;;;;3.65;1.40;;;27.00;99.90;;;;;;5121739;28;20178;-44
2022/07/09 10:09:29;;;;;;;3.38;1.77;;;27.00;99.90;;;;;;5122421;28;20612;-44
2022/07/09 10:11:54;;;;;;;1.65;1.50;;;26.90;99.90;;;;;;5122892;28;20175;-44
2022/07/09 10:14:23;;;;;;;2.30;1.70;;;27.00;99.90;;;;;;5121727;28;20166;-40
2022/07/09 10:16:48;;;;;;;2.28;1.67;;;26.90;99.90;;;;;;5120223;28;20265;-44
2022/07/09 10:19:33;;;;;;;3.42;1.60;;;26.80;99.90;;;;;;5120832;28;20637;-44
2022/07/09 10:22:36;;;;;;;1.75;1.02;;;26.70;99.90;;;;;;5121953;28;20244;-41
2022/07/09 10:35:27;;;;;;;1.08;0.80;;;27.20;99.90;;;;;;5116033;28;20626;-40
2022/07/09 10:37:54;;;;;;;2.58;1.00;;;27.20;99.90;;;;;;5116245;28;20206;-40
2022/07/09 10:40:21;;;;;;;2.00;1.10;;;27.10;99.90;;;;;;5115982;28;20673;-39
2022/07/09 10:43:02;;;;;;;3.97;1.25;;;26.90;99.90;;;;;;5116984;28;20551;-39
2022/07/09 10:45:31;;;;;;;4.20;1.55;;;26.70;99.90;;;;;;5116053;28;20269;-39
2022/07/09 10:48:01;;;;;;;1.95;1.42;;;26.70;99.90;;;;;;5116008;28;20676;-40
2022/07/09 10:50:29;;;;;;;2.60;1.30;;;26.80;99.90;;;;;;5116054;28;20209;-42
2022/07/09 10:52:55;;;;;;;3.22;1.40;;;26.80;99.90;;;;;;5116198;28;20170;-39
2022/07/09 10:55:25;;;;;;;2.85;1.80;;;26.90;99.90;;;;;;5097761;28;20307;-38
2022/07/09 10:57:52;;;;;;;1.98;1.45;;;27.00;99.90;;;;;;5116517;28;20166;-38
2022/07/09 11:00:26;;;;;;;2.63;1.83;;;26.90;99.90;;;;;;5116241;28;20729;-40
2022/07/09 11:02:56;;;;;;;4.68;1.65;;;26.80;99.90;;;;;;5116303;28;20168;-40
2022/07/09 11:05:46;;;;;;;4.53;1.80;;;26.80;99.90;;;;;;5076579;28;20189;-41
2022/07/09 11:08:12;;;;;;;3.40;1.88;;;27.00;99.90;;;;;;5115584;28;20287;-41
2022/07/09 11:10:39;;;;;;;3.60;2.00;;;27.20;99.90;;;;;;5115203;28;20233;-40
2022/07/09 11:13:08;;;;;;;2.47;1.60;;;27.30;99.90;;;;;;5115626;28;20182;-37
2022/07/09 11:15:34;;;;;;;3.43;1.87;;;27.50;99.90;;;;;;5097124;28;20574;-39
2022/07/09 11:18:04;;;;;;;4.70;2.23;;;27.50;99.90;;;;;;5115236;28;20182;-39
2022/07/09 11:20:32;;;;;;;2.87;2.00;;;27.50;99.90;;;;;;5115062;28;20251;-40
2022/07/09 11:23:00;;;;;;;4.60;2.40;;;27.50;99.90;;;;;;5115109;28;20649;-40
2022/07/09 11:25:26;;;;;;;2.73;1.60;;;27.40;99.90;;;;;;5115159;28;20650;-40
2022/07/09 11:27:56;;;;;;;3.33;1.50;;;27.30;99.90;;;;;;5114953;28;20638;-41
2022/07/09 11:30:22;;;;;;;3.63;1.77;;;27.20;99.90;;;;;;5114976;28;20206;-38
2022/07/09 11:32:49;;;;;;;3.47;1.80;;;27.00;99.90;;;;;;5114970;28;20185;-40
2022/07/09 11:35:34;;;;;;;1.80;1.70;;;26.80;99.90;;;;;;5115738;28;20185;-39
2022/07/09 11:38:03;;;;;;;2.07;1.70;;;26.80;99.90;;;;;;5115160;28;20587;-40
2022/07/09 11:40:29;;;;;;;3.10;2.20;;;26.70;99.90;;;;;;5114780;28;20202;-40
2022/07/09 11:42:55;;;;;;;4.17;2.00;;;26.60;99.90;;;;;;5114812;28;20638;-41
2022/07/09 11:45:21;;;;;;;2.87;1.70;;;26.70;99.90;;;;;;5114835;28;20178;-39
2022/07/09 11:47:46;;;;;;;3.27;1.53;;;26.80;99.90;;;;;;5114888;28;20705;-41
2022/07/09 11:50:14;;;;;;;2.20;2.00;;;26.90;99.90;;;;;;5114780;28;20285;-39
2022/07/09 11:52:48;;;;;;;4.93;1.50;;;27.00;99.90;;;;;;5114713;28;20702;-41
2022/07/09 11:55:16;;;;;;;3.03;1.77;;;26.90;99.90;;;;;;5114728;28;20169;-40
2022/07/09 11:57:55;;;;;;;3.10;1.47;;;26.80;99.90;;;;;;5115039;28;20173;-39
2022/07/09 12:00:27;;;;;;;3.43;1.60;;;26.90;99.90;;;;;;5096357;28;20204;-41
2022/07/09 12:02:53;;;;;;;3.33;1.53;;;26.90;99.90;;;;;;5114391;28;20584;-41
2022/07/09 12:05:37;;;;;;;3.77;1.90;;;26.90;99.90;;;;;;5114405;28;20521;-42
2022/07/09 12:08:07;;;;;;;3.33;1.50;;;27.00;99.90;;;;;;5114585;28;20505;-39
2022/07/09 12:10:35;;;;;;;8.50;1.80;;;26.90;99.90;;;;;;5114459;28;20617;-39
2022/07/09 12:13:02;;;;;;;4.07;1.70;;;26.80;99.90;;;;;;5114409;28;20252;-42
2022/07/09 12:15:28;;;;;;;17.63;3.27;;;26.70;99.90;;;;;;5113882;28;20350;-40
2022/07/09 12:17:58;;;;;;;6.63;1.83;;;26.60;99.90;;;;;;5114110;28;20170;-41
2022/07/09 12:20:25;;;;;;;2.70;1.57;;;26.30;99.90;;;;;;5113966;28;20209;-40
2022/07/09 12:22:52;;;;;;;3.30;1.53;;;26.00;99.90;;;;;;5114311;28;20257;-41
2022/07/09 12:25:18;;;;;;;5.20;2.43;;;26.00;99.90;;;;;;5114126;28;20174;-41
2022/07/09 12:27:45;;;;;;;1.90;1.60;;;25.90;99.90;;;;;;5114269;28;20182;-41
2022/07/09 12:30:11;;;;;;;2.63;2.00;;;25.70;99.90;;;;;;5113963;28;20217;-41
2022/07/09 12:32:37;;;;;;;2.80;2.20;;;25.50;99.90;;;;;;5114122;28;20276;-41
2022/07/09 12:35:04;;;;;;;4.83;2.03;;;25.30;99.90;;;;;;5113825;28;20186;-37
2022/07/09 12:37:29;;;;;;;4.90;2.23;;;25.00;99.90;;;;;;5113727;28;20190;-41
2022/07/09 12:39:55;;;;;;;5.43;2.30;;;24.80;99.90;;;;;;5114120;28;20194;-41
2022/07/09 12:42:21;;;;;;;5.83;2.90;;;24.50;99.90;;;;;;5114063;28;20184;-41
2022/07/09 12:44:47;;;;;;;4.70;2.20;;;24.30;99.90;;;;;;5113782;28;20174;-42
2022/07/09 12:47:14;;;;;;;4.70;2.47;;;24.20;99.90;;;;;;5114905;28;20205;-42
2022/07/09 12:49:39;;;;;;;7.07;4.20;;;24.00;99.90;;;;;;5120447;28;20731;-41
2022/07/09 12:52:05;;;;;;;10.87;7.30;;;23.90;99.90;;;;;;5120643;28;20208;-41
2022/07/09 12:54:31;;;;;;;17.23;7.03;;;23.50;99.90;;;;;;5120495;28;20174;-42